Impacts METAR Board
IDs:

KLAX - Los Angeles Intl, CA, US

Updated at: 0000 UTC 27 Apr 2018
Potential Impact None Slight Moderate High
Time 26/12Z 26/13Z 26/14Z 26/15Z 26/16Z 26/17Z 26/18Z 26/19Z 26/20Z 26/21Z 26/22Z 26/23Z 27/00Z
Temp56 56 56 57 58 60 62 64 64 64 64 63 62
Dewpt51 51 50 51 51 50 51 51 51 51 51 51 51
Altim30.00 30.01 30.03 30.04 30.05 30.05 30.05 30.05 30.03 30.03 30.02 29.99 29.97
VIS10 9 8 9 10 9 10 10 10 10 10 10 10
CIG10 10 12 15 15 18 -- -- -- -- -- -- --
CoverOVCOVCOVCOVCBKNBKNFEWCLRCLRCLRCLRFEWFEW
FltCatMVFRMVFRMVFRMVFRMVFRMVFRVFRVFRVFRVFRVFRVFRVFR
WX--------------------------
WDir260260000250250260270270260270270
WSpd4 5 0 0 3 7 4 9 10 13 11 12 12
WGst-- -- -- -- -- -- -- -- -- -- -- -- --
Raw hourly METARs
KLAX 261153Z 26004KT 10SM OVC010 13/11 A3000 RMK AO2 SLP157 T01330106 10139 20133 56008
KLAX 261253Z 26005KT 9SM OVC010 13/11 A3001 RMK AO2 SLP162 T01330106
KLAX 261353Z 00000KT 8SM OVC012 13/10 A3003 RMK AO2 SLP167 T01330100
KLAX 261453Z 00000KT 9SM OVC015 14/11 A3004 RMK AO2 SLP172 T01390106 53015
KLAX 261553Z VRB03KT 10SM BKN015 14/11 A3005 RMK AO2 SLP174 T01440106
KLAX 261653Z 25007KT 9SM BKN018 16/10 A3005 RMK AO2 SLP176 T01560100
KLAX 261753Z 25004KT 10SM FEW019 17/11 A3005 RMK AO2 SLP177 T01670106 10167 20133 51004
KLAX 261853Z 26009KT 10SM CLR 18/11 A3005 RMK AO2 SLP174 T01780106
KLAX 261953Z 27010KT 10SM CLR 18/11 A3003 RMK AO2 SLP170 T01780106
KLAX 262053Z 27013KT 10SM CLR 18/11 A3003 RMK AO2 SLP169 T01780106 56007
KLAX 262153Z 26011KT 10SM CLR 18/11 A3002 RMK AO2 SLP164 T01780106
KLAX 262253Z 27012KT 10SM FEW010 17/11 A2999 RMK AO2 SLP156 T01720106
KLAX 262353Z 27012KT 10SM FEW010 17/11 A2997 RMK AO2 SLP149 T01670106 10183 20167 58020



Page loaded:  00:32 UTC  |   05:32 PM Pacific  |   06:32 PM Mountain  |   07:32 PM Central  |   08:32 PM Eastern

 

ADVISORIES

FORECASTS

FORECASTS

OBSERVATIONS

USER TOOLS

ABOUT US